sensor_id;sensor_type;location;lat;lon;timestamp;P1;durP1;ratioP1;P2;durP2;ratioP2
39426;SDS011;25938;48.470;1.486;2023-03-01T00:00:51;3.50;;;3.20;;
39426;SDS011;25938;48.470;1.486;2023-03-01T00:03:17;3.58;;;3.28;;
39426;SDS011;25938;48.470;1.486;2023-03-01T00:05:46;5.00;;;3.20;;
39426;SDS011;25938;48.470;1.486;2023-03-01T00:08:13;3.88;;;3.35;;
39426;SDS011;25938;48.470;1.486;2023-03-01T00:10:39;4.10;;;3.70;;
39426;SDS011;25938;48.470;1.486;2023-03-01T00:13:05;4.28;;;3.42;;
39426;SDS011;25938;48.470;1.486;2023-03-01T00:15:31;3.53;;;3.22;;
39426;SDS011;25938;48.470;1.486;2023-03-01T00:17:57;4.70;;;3.60;;
39426;SDS011;25938;48.470;1.486;2023-03-01T00:20:23;3.20;;;3.00;;
39426;SDS011;25938;48.470;1.486;2023-03-01T00:22:49;5.28;;;3.63;;
39426;SDS011;25938;48.470;1.486;2023-03-01T00:25:15;4.60;;;3.83;;
39426;SDS011;25938;48.470;1.486;2023-03-01T00:27:41;4.00;;;3.45;;
39426;SDS011;25938;48.470;1.486;2023-03-01T00:30:07;3.83;;;3.10;;
39426;SDS011;25938;48.470;1.486;2023-03-01T00:32:34;3.70;;;3.20;;
39426;SDS011;25938;48.470;1.486;2023-03-01T00:35:00;4.57;;;3.10;;
39426;SDS011;25938;48.470;1.486;2023-03-01T00:37:26;4.35;;;3.67;;
39426;SDS011;25938;48.470;1.486;2023-03-01T00:39:52;4.18;;;3.38;;
39426;SDS011;25938;48.470;1.486;2023-03-01T00:42:18;3.95;;;3.50;;
39426;SDS011;25938;48.470;1.486;2023-03-01T00:44:44;4.60;;;3.50;;
39426;SDS011;25938;48.470;1.486;2023-03-01T00:47:10;3.33;;;3.03;;
39426;SDS011;25938;48.470;1.486;2023-03-01T00:49:36;5.25;;;3.08;;
39426;SDS011;25938;48.470;1.486;2023-03-01T00:52:02;4.90;;;3.05;;
39426;SDS011;25938;48.470;1.486;2023-03-01T00:54:28;4.60;;;3.25;;
39426;SDS011;25938;48.470;1.486;2023-03-01T00:56:54;4.63;;;3.28;;
39426;SDS011;25938;48.470;1.486;2023-03-01T00:59:20;3.00;;;2.75;;
39426;SDS011;25938;48.470;1.486;2023-03-01T01:01:46;3.25;;;2.90;;
39426;SDS011;25938;48.470;1.486;2023-03-01T01:04:14;3.33;;;2.83;;
39426;SDS011;25938;48.470;1.486;2023-03-01T01:06:41;3.67;;;3.15;;
39426;SDS011;25938;48.470;1.486;2023-03-01T01:09:08;5.85;;;3.45;;
39426;SDS011;25938;48.470;1.486;2023-03-01T01:11:34;3.22;;;3.00;;
39426;SDS011;25938;48.470;1.486;2023-03-01T01:14:04;3.42;;;3.13;;
39426;SDS011;25938;48.470;1.486;2023-03-01T01:16:30;4.28;;;2.97;;
39426;SDS011;25938;48.470;1.486;2023-03-01T01:18:56;3.30;;;2.95;;
39426;SDS011;25938;48.470;1.486;2023-03-01T01:21:23;3.13;;;2.83;;
39426;SDS011;25938;48.470;1.486;2023-03-01T01:23:49;3.55;;;3.20;;
39426;SDS011;25938;48.470;1.486;2023-03-01T01:26:17;3.97;;;3.05;;
39426;SDS011;25938;48.470;1.486;2023-03-01T01:28:43;3.20;;;2.60;;
39426;SDS011;25938;48.470;1.486;2023-03-01T01:31:09;3.47;;;3.17;;
39426;SDS011;25938;48.470;1.486;2023-03-01T01:33:35;3.78;;;2.88;;
39426;SDS011;25938;48.470;1.486;2023-03-01T01:36:02;4.60;;;3.30;;
39426;SDS011;25938;48.470;1.486;2023-03-01T01:38:29;4.32;;;3.03;;
39426;SDS011;25938;48.470;1.486;2023-03-01T01:40:55;4.10;;;3.13;;
39426;SDS011;25938;48.470;1.486;2023-03-01T01:43:29;4.00;;;3.63;;
39426;SDS011;25938;48.470;1.486;2023-03-01T01:45:59;3.50;;;3.20;;
39426;SDS011;25938;48.470;1.486;2023-03-01T01:48:29;4.22;;;2.75;;
39426;SDS011;25938;48.470;1.486;2023-03-01T01:51:05;3.65;;;2.65;;
39426;SDS011;25938;48.470;1.486;2023-03-01T01:53:31;3.03;;;2.75;;
39426;SDS011;25938;48.470;1.486;2023-03-01T01:55:58;3.25;;;2.85;;
39426;SDS011;25938;48.470;1.486;2023-03-01T01:58:26;3.42;;;3.13;;
39426;SDS011;25938;48.470;1.486;2023-03-01T02:00:53;3.05;;;2.83;;
39426;SDS011;25938;48.470;1.486;2023-03-01T02:03:24;3.13;;;2.80;;
39426;SDS011;25938;48.470;1.486;2023-03-01T02:05:56;3.63;;;2.72;;
39426;SDS011;25938;48.470;1.486;2023-03-01T02:08:23;3.85;;;3.20;;
39426;SDS011;25938;48.470;1.486;2023-03-01T02:10:51;3.40;;;3.10;;
39426;SDS011;25938;48.470;1.486;2023-03-01T02:13:17;3.40;;;2.72;;
39426;SDS011;25938;48.470;1.486;2023-03-01T02:15:43;3.28;;;2.97;;
39426;SDS011;25938;48.470;1.486;2023-03-01T02:18:10;3.33;;;2.80;;
39426;SDS011;25938;48.470;1.486;2023-03-01T02:23:03;4.38;;;3.03;;
39426;SDS011;25938;48.470;1.486;2023-03-01T02:25:36;3.17;;;2.80;;
39426;SDS011;25938;48.470;1.486;2023-03-01T02:30:40;3.75;;;3.45;;
39426;SDS011;25938;48.470;1.486;2023-03-01T02:33:27;4.80;;;3.17;;
39426;SDS011;25938;48.470;1.486;2023-03-01T02:35:53;3.28;;;2.97;;
39426;SDS011;25938;48.470;1.486;2023-03-01T02:38:20;2.78;;;2.50;;
39426;SDS011;25938;48.470;1.486;2023-03-01T02:40:46;4.70;;;3.35;;
39426;SDS011;25938;48.470;1.486;2023-03-01T02:43:13;3.03;;;2.65;;
39426;SDS011;25938;48.470;1.486;2023-03-01T02:45:43;3.08;;;2.80;;
39426;SDS011;25938;48.470;1.486;2023-03-01T02:48:09;5.35;;;2.85;;
39426;SDS011;25938;48.470;1.486;2023-03-01T02:51:02;4.05;;;2.78;;
39426;SDS011;25938;48.470;1.486;2023-03-01T02:55:47;3.78;;;3.00;;
39426;SDS011;25938;48.470;1.486;2023-03-01T02:58:13;2.75;;;2.40;;
39426;SDS011;25938;48.470;1.486;2023-03-01T03:00:40;5.50;;;3.45;;
39426;SDS011;25938;48.470;1.486;2023-03-01T03:03:15;3.80;;;2.85;;
39426;SDS011;25938;48.470;1.486;2023-03-01T03:05:42;3.42;;;3.08;;
39426;SDS011;25938;48.470;1.486;2023-03-01T03:08:08;4.63;;;3.08;;
39426;SDS011;25938;48.470;1.486;2023-03-01T03:10:35;3.45;;;3.05;;
39426;SDS011;25938;48.470;1.486;2023-03-01T03:13:12;6.28;;;3.65;;
39426;SDS011;25938;48.470;1.486;2023-03-01T03:15:39;4.05;;;3.20;;
39426;SDS011;25938;48.470;1.486;2023-03-01T03:18:07;3.40;;;3.10;;
39426;SDS011;25938;48.470;1.486;2023-03-01T03:20:33;2.65;;;2.42;;
39426;SDS011;25938;48.470;1.486;2023-03-01T03:22:59;4.60;;;3.17;;
39426;SDS011;25938;48.470;1.486;2023-03-01T03:25:26;2.70;;;2.45;;
39426;SDS011;25938;48.470;1.486;2023-03-01T03:27:53;3.35;;;2.72;;
39426;SDS011;25938;48.470;1.486;2023-03-01T03:30:27;3.17;;;2.78;;
39426;SDS011;25938;48.470;1.486;2023-03-01T03:32:54;4.13;;;3.15;;
39426;SDS011;25938;48.470;1.486;2023-03-01T03:35:31;4.22;;;3.33;;
39426;SDS011;25938;48.470;1.486;2023-03-01T03:37:58;4.40;;;2.70;;
39426;SDS011;25938;48.470;1.486;2023-03-01T03:40:28;3.38;;;2.72;;
39426;SDS011;25938;48.470;1.486;2023-03-01T03:42:55;3.53;;;3.20;;
39426;SDS011;25938;48.470;1.486;2023-03-01T03:45:21;5.40;;;3.05;;
39426;SDS011;25938;48.470;1.486;2023-03-01T03:47:47;4.68;;;3.25;;
39426;SDS011;25938;48.470;1.486;2023-03-01T03:50:14;4.90;;;3.30;;
39426;SDS011;25938;48.470;1.486;2023-03-01T03:52:40;2.92;;;2.67;;
39426;SDS011;25938;48.470;1.486;2023-03-01T03:55:07;3.15;;;2.83;;
39426;SDS011;25938;48.470;1.486;2023-03-01T03:57:39;3.45;;;3.15;;
39426;SDS011;25938;48.470;1.486;2023-03-01T04:00:06;4.25;;;3.30;;
39426;SDS011;25938;48.470;1.486;2023-03-01T04:02:44;3.88;;;3.38;;
39426;SDS011;25938;48.470;1.486;2023-03-01T04:05:11;3.90;;;2.87;;
39426;SDS011;25938;48.470;1.486;2023-03-01T04:07:37;3.08;;;2.78;;
39426;SDS011;25938;48.470;1.486;2023-03-01T04:10:04;3.83;;;3.40;;
39426;SDS011;25938;48.470;1.486;2023-03-01T04:12:31;4.28;;;3.40;;
39426;SDS011;25938;48.470;1.486;2023-03-01T04:14:58;3.50;;;3.17;;
39426;SDS011;25938;48.470;1.486;2023-03-01T04:17:24;3.42;;;3.13;;
39426;SDS011;25938;48.470;1.486;2023-03-01T04:19:51;3.22;;;2.70;;
39426;SDS011;25938;48.470;1.486;2023-03-01T04:22:17;4.85;;;3.03;;
39426;SDS011;25938;48.470;1.486;2023-03-01T04:24:46;4.32;;;3.08;;
39426;SDS011;25938;48.470;1.486;2023-03-01T04:27:12;2.97;;;2.65;;
39426;SDS011;25938;48.470;1.486;2023-03-01T04:29:38;3.65;;;3.08;;
39426;SDS011;25938;48.470;1.486;2023-03-01T04:32:04;3.33;;;2.88;;
39426;SDS011;25938;48.470;1.486;2023-03-01T04:34:30;3.67;;;2.88;;
39426;SDS011;25938;48.470;1.486;2023-03-01T04:36:56;3.20;;;2.90;;
39426;SDS011;25938;48.470;1.486;2023-03-01T04:39:22;3.40;;;3.08;;
39426;SDS011;25938;48.470;1.486;2023-03-01T04:41:48;5.63;;;3.03;;
39426;SDS011;25938;48.470;1.486;2023-03-01T04:44:14;5.35;;;3.67;;
39426;SDS011;25938;48.470;1.486;2023-03-01T04:46:40;4.15;;;3.75;;
39426;SDS011;25938;48.470;1.486;2023-03-01T04:49:06;4.10;;;3.70;;
39426;SDS011;25938;48.470;1.486;2023-03-01T04:51:32;4.10;;;3.15;;
39426;SDS011;25938;48.470;1.486;2023-03-01T04:53:58;4.03;;;3.03;;
39426;SDS011;25938;48.470;1.486;2023-03-01T04:56:25;5.15;;;3.30;;
39426;SDS011;25938;48.470;1.486;2023-03-01T04:58:54;4.07;;;3.17;;
39426;SDS011;25938;48.470;1.486;2023-03-01T05:01:20;3.15;;;2.85;;
39426;SDS011;25938;48.470;1.486;2023-03-01T05:03:47;6.40;;;3.88;;
39426;SDS011;25938;48.470;1.486;2023-03-01T05:06:14;3.88;;;3.08;;
39426;SDS011;25938;48.470;1.486;2023-03-01T05:08:41;3.17;;;2.88;;
39426;SDS011;25938;48.470;1.486;2023-03-01T05:11:07;6.28;;;3.50;;
39426;SDS011;25938;48.470;1.486;2023-03-01T05:13:34;3.40;;;2.92;;
39426;SDS011;25938;48.470;1.486;2023-03-01T05:16:01;3.35;;;3.10;;
39426;SDS011;25938;48.470;1.486;2023-03-01T05:18:28;3.33;;;2.92;;
39426;SDS011;25938;48.470;1.486;2023-03-01T05:20:55;4.15;;;3.03;;
39426;SDS011;25938;48.470;1.486;2023-03-01T05:23:23;3.83;;;2.83;;
39426;SDS011;25938;48.470;1.486;2023-03-01T05:25:49;4.60;;;3.35;;
39426;SDS011;25938;48.470;1.486;2023-03-01T05:28:17;3.42;;;3.13;;
39426;SDS011;25938;48.470;1.486;2023-03-01T05:30:44;3.55;;;2.72;;
39426;SDS011;25938;48.470;1.486;2023-03-01T05:33:10;3.83;;;2.85;;
39426;SDS011;25938;48.470;1.486;2023-03-01T05:35:40;5.05;;;3.05;;
39426;SDS011;25938;48.470;1.486;2023-03-01T05:38:07;3.80;;;3.45;;
39426;SDS011;25938;48.470;1.486;2023-03-01T05:40:33;3.28;;;2.75;;
39426;SDS011;25938;48.470;1.486;2023-03-01T05:42:59;4.00;;;3.25;;
39426;SDS011;25938;48.470;1.486;2023-03-01T05:45:26;5.45;;;4.80;;
39426;SDS011;25938;48.470;1.486;2023-03-01T05:47:53;5.15;;;3.55;;
39426;SDS011;25938;48.470;1.486;2023-03-01T05:50:24;4.22;;;3.75;;
39426;SDS011;25938;48.470;1.486;2023-03-01T05:52:51;4.80;;;3.47;;
39426;SDS011;25938;48.470;1.486;2023-03-01T05:55:18;4.53;;;3.20;;
39426;SDS011;25938;48.470;1.486;2023-03-01T05:57:45;3.80;;;3.28;;
39426;SDS011;25938;48.470;1.486;2023-03-01T06:00:11;4.95;;;3.45;;
39426;SDS011;25938;48.470;1.486;2023-03-01T06:02:38;4.13;;;3.83;;
39426;SDS011;25938;48.470;1.486;2023-03-01T06:05:05;2.85;;;2.63;;
39426;SDS011;25938;48.470;1.486;2023-03-01T06:07:31;5.45;;;3.55;;
39426;SDS011;25938;48.470;1.486;2023-03-01T06:09:57;3.80;;;3.13;;
39426;SDS011;25938;48.470;1.486;2023-03-01T06:12:23;5.93;;;3.85;;
39426;SDS011;25938;48.470;1.486;2023-03-01T06:14:49;4.10;;;3.65;;
39426;SDS011;25938;48.470;1.486;2023-03-01T06:17:16;5.30;;;3.35;;
39426;SDS011;25938;48.470;1.486;2023-03-01T06:19:42;6.45;;;3.63;;
39426;SDS011;25938;48.470;1.486;2023-03-01T06:22:08;4.85;;;3.28;;
39426;SDS011;25938;48.470;1.486;2023-03-01T06:24:34;4.10;;;2.90;;
39426;SDS011;25938;48.470;1.486;2023-03-01T06:27:00;4.80;;;3.72;;
39426;SDS011;25938;48.470;1.486;2023-03-01T06:29:26;3.53;;;3.22;;
39426;SDS011;25938;48.470;1.486;2023-03-01T06:31:52;4.18;;;3.60;;
39426;SDS011;25938;48.470;1.486;2023-03-01T06:34:18;5.82;;;4.35;;
39426;SDS011;25938;48.470;1.486;2023-03-01T06:36:46;5.25;;;3.50;;
39426;SDS011;25938;48.470;1.486;2023-03-01T06:39:12;4.63;;;3.30;;
39426;SDS011;25938;48.470;1.486;2023-03-01T06:41:39;4.45;;;4.05;;
39426;SDS011;25938;48.470;1.486;2023-03-01T06:44:05;9.20;;;6.00;;
39426;SDS011;25938;48.470;1.486;2023-03-01T06:46:31;6.63;;;5.32;;
39426;SDS011;25938;48.470;1.486;2023-03-01T06:48:57;7.13;;;5.40;;
39426;SDS011;25938;48.470;1.486;2023-03-01T06:51:23;7.07;;;5.85;;
39426;SDS011;25938;48.470;1.486;2023-03-01T06:53:50;10.25;;;6.65;;
39426;SDS011;25938;48.470;1.486;2023-03-01T06:56:16;8.77;;;4.90;;
39426;SDS011;25938;48.470;1.486;2023-03-01T06:58:42;6.03;;;4.50;;
39426;SDS011;25938;48.470;1.486;2023-03-01T07:01:08;6.18;;;5.40;;
39426;SDS011;25938;48.470;1.486;2023-03-01T07:03:34;6.18;;;4.45;;
39426;SDS011;25938;48.470;1.486;2023-03-01T07:06:00;5.40;;;4.68;;
39426;SDS011;25938;48.470;1.486;2023-03-01T07:08:26;6.55;;;4.68;;
39426;SDS011;25938;48.470;1.486;2023-03-01T07:10:56;5.88;;;4.72;;
39426;SDS011;25938;48.470;1.486;2023-03-01T07:13:22;6.18;;;4.75;;
39426;SDS011;25938;48.470;1.486;2023-03-01T07:15:48;6.82;;;5.00;;
39426;SDS011;25938;48.470;1.486;2023-03-01T07:18:14;6.60;;;5.63;;
39426;SDS011;25938;48.470;1.486;2023-03-01T07:20:40;5.70;;;4.43;;
39426;SDS011;25938;48.470;1.486;2023-03-01T07:23:06;7.80;;;4.53;;
39426;SDS011;25938;48.470;1.486;2023-03-01T07:25:32;7.65;;;5.57;;
39426;SDS011;25938;48.470;1.486;2023-03-01T07:27:58;4.07;;;3.60;;
39426;SDS011;25938;48.470;1.486;2023-03-01T07:30:25;7.07;;;5.53;;
39426;SDS011;25938;48.470;1.486;2023-03-01T07:32:53;6.88;;;5.20;;
39426;SDS011;25938;48.470;1.486;2023-03-01T07:35:20;5.75;;;4.65;;
39426;SDS011;25938;48.470;1.486;2023-03-01T07:37:46;6.65;;;4.35;;
39426;SDS011;25938;48.470;1.486;2023-03-01T07:40:12;5.80;;;5.00;;
39426;SDS011;25938;48.470;1.486;2023-03-01T07:42:38;5.75;;;4.32;;
39426;SDS011;25938;48.470;1.486;2023-03-01T07:45:05;4.97;;;3.92;;
39426;SDS011;25938;48.470;1.486;2023-03-01T07:47:31;6.78;;;5.28;;
39426;SDS011;25938;48.470;1.486;2023-03-01T07:49:57;6.03;;;4.70;;
39426;SDS011;25938;48.470;1.486;2023-03-01T07:52:23;8.02;;;5.22;;
39426;SDS011;25938;48.470;1.486;2023-03-01T07:54:50;7.88;;;4.68;;
39426;SDS011;25938;48.470;1.486;2023-03-01T07:57:16;6.63;;;5.07;;
39426;SDS011;25938;48.470;1.486;2023-03-01T07:59:42;7.28;;;5.70;;
39426;SDS011;25938;48.470;1.486;2023-03-01T08:02:08;5.85;;;5.22;;
39426;SDS011;25938;48.470;1.486;2023-03-01T08:04:34;8.38;;;4.68;;
39426;SDS011;25938;48.470;1.486;2023-03-01T08:07:00;6.35;;;5.43;;
39426;SDS011;25938;48.470;1.486;2023-03-01T08:09:26;7.05;;;4.90;;
39426;SDS011;25938;48.470;1.486;2023-03-01T08:11:52;8.85;;;5.85;;
39426;SDS011;25938;48.470;1.486;2023-03-01T08:14:19;6.75;;;4.68;;
39426;SDS011;25938;48.470;1.486;2023-03-01T08:16:45;7.15;;;5.47;;
39426;SDS011;25938;48.470;1.486;2023-03-01T08:19:14;6.13;;;3.75;;
39426;SDS011;25938;48.470;1.486;2023-03-01T08:21:40;5.05;;;4.53;;
39426;SDS011;25938;48.470;1.486;2023-03-01T08:24:06;6.65;;;4.78;;
39426;SDS011;25938;48.470;1.486;2023-03-01T08:26:33;6.25;;;4.90;;
39426;SDS011;25938;48.470;1.486;2023-03-01T08:28:59;6.43;;;5.47;;
39426;SDS011;25938;48.470;1.486;2023-03-01T08:31:27;5.03;;;4.63;;
39426;SDS011;25938;48.470;1.486;2023-03-01T08:33:54;5.75;;;4.97;;
39426;SDS011;25938;48.470;1.486;2023-03-01T08:36:22;7.55;;;5.65;;
39426;SDS011;25938;48.470;1.486;2023-03-01T08:38:48;5.10;;;4.55;;
39426;SDS011;25938;48.470;1.486;2023-03-01T08:41:14;6.07;;;5.25;;
39426;SDS011;25938;48.470;1.486;2023-03-01T08:43:40;5.65;;;5.05;;
39426;SDS011;25938;48.470;1.486;2023-03-01T08:46:07;6.28;;;5.60;;
39426;SDS011;25938;48.470;1.486;2023-03-01T08:48:33;6.38;;;4.93;;
39426;SDS011;25938;48.470;1.486;2023-03-01T08:53:34;5.95;;;4.97;;
39426;SDS011;25938;48.470;1.486;2023-03-01T08:56:00;6.47;;;4.88;;
39426;SDS011;25938;48.470;1.486;2023-03-01T08:58:29;6.45;;;5.70;;
39426;SDS011;25938;48.470;1.486;2023-03-01T09:00:55;5.90;;;5.30;;
39426;SDS011;25938;48.470;1.486;2023-03-01T09:03:22;7.10;;;5.40;;
39426;SDS011;25938;48.470;1.486;2023-03-01T09:05:49;7.18;;;5.43;;
39426;SDS011;25938;48.470;1.486;2023-03-01T09:08:16;7.40;;;5.40;;
39426;SDS011;25938;48.470;1.486;2023-03-01T09:10:42;6.13;;;5.63;;
39426;SDS011;25938;48.470;1.486;2023-03-01T09:13:08;8.15;;;5.55;;
39426;SDS011;25938;48.470;1.486;2023-03-01T09:15:36;6.43;;;5.32;;
39426;SDS011;25938;48.470;1.486;2023-03-01T09:18:02;5.45;;;4.93;;
39426;SDS011;25938;48.470;1.486;2023-03-01T09:20:30;6.53;;;5.57;;
39426;SDS011;25938;48.470;1.486;2023-03-01T09:22:56;5.07;;;4.57;;
39426;SDS011;25938;48.470;1.486;2023-03-01T09:25:22;6.00;;;4.75;;
39426;SDS011;25938;48.470;1.486;2023-03-01T09:27:52;6.50;;;5.75;;
39426;SDS011;25938;48.470;1.486;2023-03-01T09:30:18;5.90;;;4.85;;
39426;SDS011;25938;48.470;1.486;2023-03-01T09:32:44;6.03;;;5.13;;
39426;SDS011;25938;48.470;1.486;2023-03-01T09:35:10;5.82;;;5.05;;
39426;SDS011;25938;48.470;1.486;2023-03-01T09:37:37;4.82;;;4.20;;
39426;SDS011;25938;48.470;1.486;2023-03-01T09:40:08;7.70;;;5.68;;
39426;SDS011;25938;48.470;1.486;2023-03-01T09:42:45;5.07;;;4.35;;
39426;SDS011;25938;48.470;1.486;2023-03-01T09:45:11;5.68;;;5.07;;
39426;SDS011;25938;48.470;1.486;2023-03-01T09:47:40;6.57;;;5.10;;
39426;SDS011;25938;48.470;1.486;2023-03-01T09:50:15;8.40;;;5.55;;
39426;SDS011;25938;48.470;1.486;2023-03-01T09:55:31;5.65;;;5.07;;
39426;SDS011;25938;48.470;1.486;2023-03-01T09:58:00;7.38;;;5.35;;
39426;SDS011;25938;48.470;1.486;2023-03-01T10:00:36;5.35;;;4.65;;
39426;SDS011;25938;48.470;1.486;2023-03-01T10:03:17;7.03;;;5.28;;
39426;SDS011;25938;48.470;1.486;2023-03-01T10:10:43;7.90;;;5.88;;
39426;SDS011;25938;48.470;1.486;2023-03-01T10:16:32;8.25;;;5.63;;
39426;SDS011;25938;48.470;1.486;2023-03-01T10:19:03;7.63;;;4.45;;
39426;SDS011;25938;48.470;1.486;2023-03-01T10:21:30;5.40;;;4.32;;
39426;SDS011;25938;48.470;1.486;2023-03-01T10:23:58;4.35;;;3.83;;
39426;SDS011;25938;48.470;1.486;2023-03-01T10:26:32;6.63;;;4.20;;
39426;SDS011;25938;48.470;1.486;2023-03-01T10:29:06;7.30;;;5.00;;
39426;SDS011;25938;48.470;1.486;2023-03-01T10:34:09;5.30;;;4.65;;
39426;SDS011;25938;48.470;1.486;2023-03-01T10:36:36;5.97;;;4.55;;
39426;SDS011;25938;48.470;1.486;2023-03-01T10:39:06;5.07;;;4.45;;
39426;SDS011;25938;48.470;1.486;2023-03-01T10:41:37;4.82;;;4.32;;
39426;SDS011;25938;48.470;1.486;2023-03-01T10:44:10;7.00;;;4.47;;
39426;SDS011;25938;48.470;1.486;2023-03-01T10:46:59;4.50;;;4.03;;
39426;SDS011;25938;48.470;1.486;2023-03-01T10:49:25;6.35;;;3.67;;
39426;SDS011;25938;48.470;1.486;2023-03-01T10:51:52;4.13;;;3.72;;
39426;SDS011;25938;48.470;1.486;2023-03-01T10:54:28;5.53;;;4.18;;
39426;SDS011;25938;48.470;1.486;2023-03-01T10:56:55;5.00;;;4.50;;
39426;SDS011;25938;48.470;1.486;2023-03-01T10:59:32;6.28;;;4.15;;
39426;SDS011;25938;48.470;1.486;2023-03-01T11:05:00;3.13;;;2.88;;
39426;SDS011;25938;48.470;1.486;2023-03-01T11:07:26;3.03;;;2.72;;
39426;SDS011;25938;48.470;1.486;2023-03-01T11:09:52;3.42;;;3.13;;
39426;SDS011;25938;48.470;1.486;2023-03-01T11:12:19;4.93;;;4.03;;
39426;SDS011;25938;48.470;1.486;2023-03-01T11:14:53;7.78;;;4.53;;
39426;SDS011;25938;48.470;1.486;2023-03-01T11:22:29;4.10;;;3.70;;
39426;SDS011;25938;48.470;1.486;2023-03-01T11:24:56;4.68;;;4.00;;
39426;SDS011;25938;48.470;1.486;2023-03-01T11:27:41;5.22;;;2.65;;
39426;SDS011;25938;48.470;1.486;2023-03-01T11:30:20;5.30;;;3.33;;
39426;SDS011;25938;48.470;1.486;2023-03-01T11:35:34;4.80;;;4.18;;
39426;SDS011;25938;48.470;1.486;2023-03-01T11:38:11;6.85;;;4.05;;
39426;SDS011;25938;48.470;1.486;2023-03-01T11:45:42;4.78;;;3.67;;
39426;SDS011;25938;48.470;1.486;2023-03-01T11:50:50;6.47;;;4.10;;
39426;SDS011;25938;48.470;1.486;2023-03-01T11:55:50;7.57;;;4.57;;
39426;SDS011;25938;48.470;1.486;2023-03-01T12:08:08;5.13;;;3.42;;
39426;SDS011;25938;48.470;1.486;2023-03-01T12:10:43;2.70;;;2.40;;
39426;SDS011;25938;48.470;1.486;2023-03-01T12:13:14;3.00;;;2.70;;
39426;SDS011;25938;48.470;1.486;2023-03-01T12:19:07;6.70;;;4.13;;
39426;SDS011;25938;48.470;1.486;2023-03-01T12:24:07;3.33;;;2.63;;
39426;SDS011;25938;48.470;1.486;2023-03-01T12:26:40;3.10;;;2.58;;
39426;SDS011;25938;48.470;1.486;2023-03-01T12:52:39;7.07;;;3.97;;
39426;SDS011;25938;48.470;1.486;2023-03-01T12:55:08;6.50;;;3.55;;
39426;SDS011;25938;48.470;1.486;2023-03-01T12:57:46;7.03;;;3.45;;
39426;SDS011;25938;48.470;1.486;2023-03-01T13:02:47;3.55;;;3.22;;
39426;SDS011;25938;48.470;1.486;2023-03-01T13:07:53;3.85;;;3.05;;
39426;SDS011;25938;48.470;1.486;2023-03-01T13:17:48;4.90;;;3.65;;
39426;SDS011;25938;48.470;1.486;2023-03-01T13:20:16;3.95;;;2.70;;
39426;SDS011;25938;48.470;1.486;2023-03-01T13:22:43;4.32;;;2.20;;
39426;SDS011;25938;48.470;1.486;2023-03-01T13:25:13;4.93;;;3.95;;
39426;SDS011;25938;48.470;1.486;2023-03-01T13:27:39;5.88;;;3.78;;
39426;SDS011;25938;48.470;1.486;2023-03-01T13:30:12;7.10;;;4.50;;
39426;SDS011;25938;48.470;1.486;2023-03-01T13:32:52;5.30;;;3.90;;
39426;SDS011;25938;48.470;1.486;2023-03-01T13:37:44;4.05;;;2.70;;
39426;SDS011;25938;48.470;1.486;2023-03-01T13:42:46;3.47;;;2.88;;
39426;SDS011;25938;48.470;1.486;2023-03-01T13:45:35;4.88;;;3.40;;
39426;SDS011;25938;48.470;1.486;2023-03-01T13:48:21;4.70;;;3.28;;
39426;SDS011;25938;48.470;1.486;2023-03-01T13:50:53;4.75;;;3.25;;
39426;SDS011;25938;48.470;1.486;2023-03-01T13:53:22;3.38;;;2.25;;
39426;SDS011;25938;48.470;1.486;2023-03-01T13:55:50;2.72;;;2.28;;
39426;SDS011;25938;48.470;1.486;2023-03-01T13:59:02;3.03;;;2.33;;
39426;SDS011;25938;48.470;1.486;2023-03-01T14:01:18;4.47;;;3.70;;
39426;SDS011;25938;48.470;1.486;2023-03-01T14:03:45;3.53;;;2.90;;
39426;SDS011;25938;48.470;1.486;2023-03-01T14:06:12;2.88;;;2.67;;
39426;SDS011;25938;48.470;1.486;2023-03-01T14:08:40;4.40;;;3.35;;
39426;SDS011;25938;48.470;1.486;2023-03-01T14:13:47;5.93;;;3.58;;
39426;SDS011;25938;48.470;1.486;2023-03-01T14:16:29;5.22;;;3.45;;
39426;SDS011;25938;48.470;1.486;2023-03-01T14:19:07;5.03;;;3.75;;
39426;SDS011;25938;48.470;1.486;2023-03-01T14:21:35;4.20;;;3.70;;
39426;SDS011;25938;48.470;1.486;2023-03-01T14:24:01;3.67;;;2.45;;
39426;SDS011;25938;48.470;1.486;2023-03-01T14:26:28;4.00;;;3.53;;
39426;SDS011;25938;48.470;1.486;2023-03-01T14:28:55;5.05;;;3.58;;
39426;SDS011;25938;48.470;1.486;2023-03-01T14:31:31;5.18;;;3.95;;
39426;SDS011;25938;48.470;1.486;2023-03-01T14:33:59;5.50;;;3.30;;
39426;SDS011;25938;48.470;1.486;2023-03-01T14:36:26;4.00;;;3.50;;
39426;SDS011;25938;48.470;1.486;2023-03-01T14:38:52;3.47;;;2.25;;
39426;SDS011;25938;48.470;1.486;2023-03-01T14:41:23;4.63;;;2.92;;
39426;SDS011;25938;48.470;1.486;2023-03-01T14:46:34;4.93;;;3.63;;
39426;SDS011;25938;48.470;1.486;2023-03-01T14:49:02;4.18;;;3.50;;
39426;SDS011;25938;48.470;1.486;2023-03-01T14:51:29;5.03;;;3.05;;
39426;SDS011;25938;48.470;1.486;2023-03-01T14:53:55;4.70;;;3.90;;
39426;SDS011;25938;48.470;1.486;2023-03-01T14:56:22;3.25;;;2.95;;
39426;SDS011;25938;48.470;1.486;2023-03-01T14:58:52;5.78;;;3.65;;
39426;SDS011;25938;48.470;1.486;2023-03-01T15:01:18;5.10;;;3.45;;
39426;SDS011;25938;48.470;1.486;2023-03-01T15:03:48;4.10;;;3.60;;
39426;SDS011;25938;48.470;1.486;2023-03-01T15:06:15;3.63;;;3.33;;
39426;SDS011;25938;48.470;1.486;2023-03-01T15:08:44;4.95;;;3.45;;
39426;SDS011;25938;48.470;1.486;2023-03-01T15:13:40;2.90;;;2.55;;
39426;SDS011;25938;48.470;1.486;2023-03-01T15:18:32;4.78;;;3.72;;
39426;SDS011;25938;48.470;1.486;2023-03-01T15:21:06;4.95;;;2.80;;
39426;SDS011;25938;48.470;1.486;2023-03-01T15:23:32;3.58;;;3.25;;
39426;SDS011;25938;48.470;1.486;2023-03-01T15:25:58;3.67;;;2.83;;
39426;SDS011;25938;48.470;1.486;2023-03-01T15:28:34;3.15;;;2.80;;
39426;SDS011;25938;48.470;1.486;2023-03-01T15:31:03;5.00;;;4.20;;
39426;SDS011;25938;48.470;1.486;2023-03-01T15:33:32;4.68;;;3.28;;
39426;SDS011;25938;48.470;1.486;2023-03-01T15:36:00;4.85;;;3.85;;
39426;SDS011;25938;48.470;1.486;2023-03-01T15:41:02;4.57;;;3.40;;
39426;SDS011;25938;48.470;1.486;2023-03-01T15:46:04;4.00;;;3.35;;
39426;SDS011;25938;48.470;1.486;2023-03-01T15:48:30;4.88;;;3.95;;
39426;SDS011;25938;48.470;1.486;2023-03-01T15:50:57;4.13;;;3.03;;
39426;SDS011;25938;48.470;1.486;2023-03-01T15:53:23;6.63;;;3.85;;
39426;SDS011;25938;48.470;1.486;2023-03-01T15:55:49;5.22;;;3.75;;
39426;SDS011;25938;48.470;1.486;2023-03-01T15:58:17;4.30;;;3.90;;
39426;SDS011;25938;48.470;1.486;2023-03-01T16:00:44;5.85;;;4.28;;
39426;SDS011;25938;48.470;1.486;2023-03-01T16:03:10;4.88;;;3.92;;
39426;SDS011;25938;48.470;1.486;2023-03-01T16:05:37;6.22;;;3.80;;
39426;SDS011;25938;48.470;1.486;2023-03-01T16:08:03;5.80;;;3.65;;
39426;SDS011;25938;48.470;1.486;2023-03-01T16:10:30;6.00;;;3.75;;
39426;SDS011;25938;48.470;1.486;2023-03-01T16:12:57;4.63;;;2.80;;
39426;SDS011;25938;48.470;1.486;2023-03-01T16:15:28;4.20;;;3.03;;
39426;SDS011;25938;48.470;1.486;2023-03-01T16:17:54;5.80;;;3.13;;
39426;SDS011;25938;48.470;1.486;2023-03-01T16:20:22;5.00;;;4.60;;
39426;SDS011;25938;48.470;1.486;2023-03-01T16:22:49;4.72;;;3.05;;
39426;SDS011;25938;48.470;1.486;2023-03-01T16:25:15;5.85;;;4.10;;
39426;SDS011;25938;48.470;1.486;2023-03-01T16:27:43;6.22;;;3.78;;
39426;SDS011;25938;48.470;1.486;2023-03-01T16:30:09;4.60;;;3.92;;
39426;SDS011;25938;48.470;1.486;2023-03-01T16:32:39;4.85;;;3.97;;
39426;SDS011;25938;48.470;1.486;2023-03-01T16:35:09;3.80;;;3.03;;
39426;SDS011;25938;48.470;1.486;2023-03-01T16:37:35;8.40;;;5.32;;
39426;SDS011;25938;48.470;1.486;2023-03-01T16:40:02;6.82;;;4.43;;
39426;SDS011;25938;48.470;1.486;2023-03-01T16:42:33;4.50;;;3.60;;
39426;SDS011;25938;48.470;1.486;2023-03-01T16:44:59;4.97;;;4.45;;
39426;SDS011;25938;48.470;1.486;2023-03-01T16:47:26;4.97;;;4.43;;
39426;SDS011;25938;48.470;1.486;2023-03-01T16:49:52;4.40;;;3.60;;